sensor_id;sensor_type;location;lat;lon;timestamp;temperature;humidity
18686;DHT22;9473;52.342;13.110;2022-09-21T15:00:47;14.50;99.90
18686;DHT22;9473;52.342;13.110;2022-09-21T15:06:25;14.60;99.90
18686;DHT22;9473;52.342;13.110;2022-09-21T15:09:29;14.60;99.90
18686;DHT22;9473;52.342;13.110;2022-09-21T15:12:21;14.70;99.90
18686;DHT22;9473;52.342;13.110;2022-09-21T15:14:58;14.50;99.90
18686;DHT22;9473;52.342;13.110;2022-09-21T15:17:29;14.70;99.90
18686;DHT22;9473;52.342;13.110;2022-09-21T15:19:57;14.80;99.90
18686;DHT22;9473;52.342;13.110;2022-09-21T15:22:27;14.50;99.90
18686;DHT22;9473;52.342;13.110;2022-09-21T15:24:54;14.70;99.90
18686;DHT22;9473;52.342;13.110;2022-09-21T15:27:23;14.50;99.90
18686;DHT22;9473;52.342;13.110;2022-09-21T15:29:52;14.60;99.90
18686;DHT22;9473;52.342;13.110;2022-09-21T15:32:24;14.60;99.90
18686;DHT22;9473;52.342;13.110;2022-09-21T15:35:00;14.70;99.90
18686;DHT22;9473;52.342;13.110;2022-09-21T15:37:28;14.70;99.90
18686;DHT22;9473;52.342;13.110;2022-09-21T15:40:00;14.80;99.90
18686;DHT22;9473;52.342;13.110;2022-09-21T15:42:27;14.60;99.90
18686;DHT22;9473;52.342;13.110;2022-09-21T15:45:09;14.60;99.90
18686;DHT22;9473;52.342;13.110;2022-09-21T15:47:36;14.60;99.90
18686;DHT22;9473;52.342;13.110;2022-09-21T15:50:11;14.60;99.90
18686;DHT22;9473;52.342;13.110;2022-09-21T15:52:43;14.60;99.90
18686;DHT22;9473;52.342;13.110;2022-09-21T15:55:15;14.60;99.90
18686;DHT22;9473;52.342;13.110;2022-09-21T15:57:46;14.60;99.90
18686;DHT22;9473;52.342;13.110;2022-09-21T16:00:21;14.60;99.90
18686;DHT22;9473;52.342;13.110;2022-09-21T16:02:55;14.80;99.90
18686;DHT22;9473;52.342;13.110;2022-09-21T16:05:29;14.70;99.90
18686;DHT22;9473;52.342;13.110;2022-09-21T16:08:06;14.70;99.90
18686;DHT22;9473;52.342;13.110;2022-09-21T16:13:11;14.80;99.90
18686;DHT22;9473;52.342;13.110;2022-09-21T16:16:03;14.50;99.90
18686;DHT22;9473;52.342;13.110;2022-09-21T16:18:32;14.80;99.90
18686;DHT22;9473;52.342;13.110;2022-09-21T16:21:19;14.50;99.90
18686;DHT22;9473;52.342;13.110;2022-09-21T16:23:48;14.70;99.90
18686;DHT22;9473;52.342;13.110;2022-09-21T16:26:21;14.50;99.90
18686;DHT22;9473;52.342;13.110;2022-09-21T16:28:56;14.40;99.90
18686;DHT22;9473;52.342;13.110;2022-09-21T16:31:26;14.40;99.90
18686;DHT22;9473;52.342;13.110;2022-09-21T16:34:13;14.40;99.90
18686;DHT22;9473;52.342;13.110;2022-09-21T16:36:46;14.40;99.90
18686;DHT22;9473;52.342;13.110;2022-09-21T16:39:17;14.50;99.90
18686;DHT22;9473;52.342;13.110;2022-09-21T16:41:49;14.70;99.90
18686;DHT22;9473;52.342;13.110;2022-09-21T16:44:18;14.50;99.90
18686;DHT22;9473;52.342;13.110;2022-09-21T16:46:47;14.50;99.90
18686;DHT22;9473;52.342;13.110;2022-09-21T16:49:17;14.30;99.90
18686;DHT22;9473;52.342;13.110;2022-09-21T16:51:45;14.30;99.90
18686;DHT22;9473;52.342;13.110;2022-09-21T16:54:15;14.20;99.90
18686;DHT22;9473;52.342;13.110;2022-09-21T16:56:41;14.20;99.90
18686;DHT22;9473;52.342;13.110;2022-09-21T17:01:40;14.40;99.90
18686;DHT22;9473;52.342;13.110;2022-09-21T17:06:38;14.40;99.90
18686;DHT22;9473;52.342;13.110;2022-09-21T17:09:17;14.30;99.90
18686;DHT22;9473;52.342;13.110;2022-09-21T17:11:44;14.20;99.90
18686;DHT22;9473;52.342;13.110;2022-09-21T17:14:11;14.20;99.90
18686;DHT22;9473;52.342;13.110;2022-09-21T17:16:42;14.10;99.90
18686;DHT22;9473;52.342;13.110;2022-09-21T17:19:09;14.10;99.90
18686;DHT22;9473;52.342;13.110;2022-09-21T17:24:03;14.20;99.90
18686;DHT22;9473;52.342;13.110;2022-09-21T17:31:30;14.20;99.90
18686;DHT22;9473;52.342;13.110;2022-09-21T17:33:57;14.20;99.90
18686;DHT22;9473;52.342;13.110;2022-09-21T17:36:24;13.90;99.90
